createdAt,value
2023-05-03T00:00:08.473Z,102186.97
2023-05-03T00:02:39.188Z,102175.59
2023-05-03T00:05:09.979Z,102177.88
2023-05-03T00:07:36.921Z,102180.19
2023-05-03T00:10:04.388Z,102181.03
2023-05-03T00:12:31.220Z,102179.25
2023-05-03T00:14:57.820Z,102182.53
2023-05-03T00:17:24.434Z,102183.69
2023-05-03T00:19:51.161Z,102182.16
2023-05-03T00:22:17.886Z,102188.22
2023-05-03T00:24:44.559Z,102192.84
2023-05-03T00:27:11.114Z,102193.13
2023-05-03T00:29:37.710Z,102183.38
2023-05-03T00:32:04.785Z,102177.50
2023-05-03T00:34:31.466Z,102182.34
2023-05-03T00:37:00.958Z,102180.38
2023-05-03T00:39:31.266Z,102182.69
2023-05-03T00:41:58.996Z,102171.47
2023-05-03T00:44:25.626Z,102170.84
2023-05-03T00:46:52.410Z,102177.50
2023-05-03T00:49:19.854Z,102178.91
2023-05-03T00:51:46.757Z,102173.75
2023-05-03T00:54:13.801Z,102184.53
2023-05-03T00:56:51.057Z,102186.13
2023-05-03T00:59:18.889Z,102181.03
2023-05-03T01:01:50.135Z,102187.78
2023-05-03T01:04:21.056Z,102185.13
2023-05-03T01:07:07.234Z,102188.69
2023-05-03T01:09:53.584Z,102181.19
2023-05-03T01:12:58.119Z,102182.19
2023-05-03T01:15:36.825Z,102187.25
2023-05-03T01:18:12.343Z,102185.28
2023-05-03T01:20:43.628Z,102176.00
2023-05-03T01:23:18.745Z,102183.34
2023-05-03T01:25:45.397Z,102185.91
2023-05-03T01:28:12.043Z,102186.81
2023-05-03T01:30:40.539Z,102189.34
2023-05-03T01:33:16.810Z,102189.13
2023-05-03T01:36:00.207Z,102192.31
2023-05-03T01:38:33.654Z,102186.47
2023-05-03T01:41:02.697Z,102192.16
2023-05-03T01:43:34.209Z,102188.16
2023-05-03T01:46:00.811Z,102198.66
2023-05-03T01:48:27.501Z,102189.13
2023-05-03T01:50:54.047Z,102186.38
2023-05-03T01:53:20.751Z,102197.91
2023-05-03T01:55:47.286Z,102200.81
2023-05-03T01:58:13.917Z,102202.41
2023-05-03T02:00:40.823Z,102202.75
2023-05-03T02:03:09.215Z,102200.16
2023-05-03T02:05:37.101Z,102204.31
2023-05-03T02:08:03.965Z,102214.59
2023-05-03T02:10:30.594Z,102212.94
2023-05-03T02:13:00.506Z,102206.69
2023-05-03T02:15:27.399Z,102211.44
2023-05-03T02:17:54.302Z,102212.06
2023-05-03T02:20:21.168Z,102218.00
2023-05-03T02:22:47.782Z,102211.66
2023-05-03T02:25:14.350Z,102218.56
2023-05-03T02:27:41.296Z,102220.78
2023-05-03T02:30:08.890Z,102223.41
2023-05-03T02:32:41.112Z,102216.31
2023-05-03T02:35:10.462Z,102223.72
2023-05-03T02:37:37.352Z,102225.03
2023-05-03T02:40:10.031Z,102224.16
2023-05-03T02:42:41.257Z,102227.31
2023-05-03T02:45:08.558Z,102231.47
2023-05-03T02:47:35.358Z,102232.97
2023-05-03T02:50:02.188Z,102234.53
2023-05-03T02:52:31.340Z,102240.84
2023-05-03T02:54:57.936Z,102243.25
2023-05-03T02:57:25.169Z,102238.00
2023-05-03T02:59:54.600Z,102243.16
2023-05-03T03:02:22.137Z,102237.56
2023-05-03T03:04:48.838Z,102238.00
2023-05-03T03:07:15.489Z,102239.16
2023-05-03T03:09:42.230Z,102236.97
2023-05-03T03:12:08.973Z,102233.63
2023-05-03T03:14:37.026Z,102228.25
2023-05-03T03:17:08.877Z,102234.63
2023-05-03T03:19:35.715Z,102219.28
2023-05-03T03:22:02.335Z,102224.91
2023-05-03T03:24:30.317Z,102224.50
2023-05-03T03:26:58.295Z,102227.38
2023-05-03T03:29:25.869Z,102225.88
2023-05-03T03:31:52.612Z,102234.38
2023-05-03T03:34:19.219Z,102218.63
2023-05-03T03:36:45.825Z,102219.47
2023-05-03T03:39:12.394Z,102222.84
2023-05-03T03:41:42.399Z,102222.47
2023-05-03T03:44:08.957Z,102221.69
2023-05-03T03:46:35.612Z,102226.84
2023-05-03T03:49:02.539Z,102216.94
2023-05-03T03:51:31.220Z,102214.16
2023-05-03T03:53:59.008Z,102217.75
2023-05-03T03:56:29.524Z,102214.59
2023-05-03T03:58:56.770Z,102210.84
2023-05-03T04:01:24.315Z,102213.50
2023-05-03T04:03:51.014Z,102215.13
2023-05-03T04:06:18.307Z,102217.41
2023-05-03T04:08:46.735Z,102219.88
2023-05-03T04:11:14.986Z,102212.16
2023-05-03T04:13:52.680Z,102212.63
2023-05-03T04:16:19.283Z,102212.91
2023-05-03T04:18:46.363Z,102216.81
2023-05-03T04:21:13.778Z,102221.84
2023-05-03T04:23:41.819Z,102228.06
2023-05-03T04:26:20.189Z,102226.03
2023-05-03T04:28:58.184Z,102226.69
2023-05-03T04:31:25.664Z,102224.91
2023-05-03T04:33:54.301Z,102227.16
2023-05-03T04:36:25.499Z,102226.59
2023-05-03T04:38:56.252Z,102225.91
2023-05-03T04:41:24.488Z,102225.53
2023-05-03T04:43:52.215Z,102229.03
2023-05-03T04:46:19.067Z,102229.34
2023-05-03T04:48:46.534Z,102224.13
2023-05-03T04:51:13.507Z,102217.97
2023-05-03T04:53:41.625Z,102212.44
2023-05-03T04:56:13.531Z,102217.59
2023-05-03T04:58:41.373Z,102228.50
2023-05-03T05:01:10.747Z,102222.16
2023-05-03T05:03:37.655Z,102222.94
2023-05-03T05:06:12.254Z,102229.56
2023-05-03T05:08:40.448Z,102225.94
2023-05-03T05:11:10.717Z,102227.50
2023-05-03T05:13:37.484Z,102231.13
2023-05-03T05:16:04.429Z,102236.97
2023-05-03T05:18:31.843Z,102227.81
2023-05-03T05:21:01.782Z,102235.53
2023-05-03T05:23:29.224Z,102238.59
2023-05-03T05:26:00.427Z,102242.81
2023-05-03T05:28:30.169Z,102241.16
2023-05-03T05:30:56.942Z,102240.56
2023-05-03T05:33:24.396Z,102248.06
2023-05-03T05:35:51.201Z,102248.13
2023-05-03T05:38:20.960Z,102250.97
2023-05-03T05:40:49.354Z,102257.66
2023-05-03T05:43:16.536Z,102261.75
2023-05-03T05:45:45.934Z,102261.28
2023-05-03T05:48:14.483Z,102259.25
2023-05-03T05:50:42.788Z,102262.69
2023-05-03T05:53:11.773Z,102262.06
2023-05-03T05:55:43.012Z,102264.63
2023-05-03T05:58:12.864Z,102260.06
2023-05-03T06:00:49.074Z,102261.81
2023-05-03T06:03:16.893Z,102268.63
2023-05-03T06:05:43.681Z,102273.00
2023-05-03T06:08:10.711Z,102274.03
2023-05-03T06:10:38.257Z,102275.28
2023-05-03T06:13:04.799Z,102282.38
2023-05-03T06:15:32.838Z,102293.22
2023-05-03T06:17:59.595Z,102291.63
2023-05-03T06:20:26.369Z,102283.22
2023-05-03T06:22:53.925Z,102292.97
2023-05-03T06:25:20.873Z,102302.75
2023-05-03T06:27:49.332Z,102309.47
2023-05-03T06:30:18.291Z,102300.66
2023-05-03T06:32:48.000Z,102304.09
2023-05-03T06:35:15.682Z,102308.09
2023-05-03T06:37:43.739Z,102297.53
2023-05-03T06:40:10.703Z,102298.16
2023-05-03T06:42:37.491Z,102300.38
2023-05-03T06:45:19.614Z,102295.66
2023-05-03T06:47:46.337Z,102296.94
2023-05-03T06:50:13.894Z,102303.97
2023-05-03T06:52:41.313Z,102296.25
2023-05-03T06:55:08.469Z,102299.50
2023-05-03T06:57:35.038Z,102299.13
2023-05-03T07:00:01.722Z,102288.78
2023-05-03T07:02:28.964Z,102291.84
2023-05-03T07:04:55.847Z,102289.75
2023-05-03T07:07:22.561Z,102283.28
2023-05-03T07:09:50.594Z,102288.31
2023-05-03T07:12:17.355Z,102286.69
2023-05-03T07:14:43.925Z,102289.50
2023-05-03T07:17:10.652Z,102282.53
2023-05-03T07:19:39.651Z,102290.44
2023-05-03T07:22:06.295Z,102286.28
2023-05-03T07:24:32.856Z,102283.50
2023-05-03T07:26:59.439Z,102280.44
2023-05-03T07:29:27.278Z,102274.28
2023-05-03T07:31:54.064Z,102272.13
2023-05-03T07:34:21.364Z,102262.59
2023-05-03T07:36:48.000Z,102271.94
2023-05-03T07:39:14.535Z,102266.78
2023-05-03T07:41:41.103Z,102262.47
2023-05-03T07:44:07.837Z,102268.13
2023-05-03T07:46:35.363Z,102266.44
2023-05-03T07:49:06.228Z,102269.59
2023-05-03T07:51:36.764Z,102260.75
2023-05-03T07:54:04.248Z,102255.31
2023-05-03T07:56:31.452Z,102254.91
2023-05-03T07:59:08.542Z,102249.84
2023-05-03T08:01:36.593Z,102253.94
2023-05-03T08:04:03.487Z,102255.34
2023-05-03T08:06:31.751Z,102256.03
2023-05-03T08:08:58.619Z,102263.09
2023-05-03T08:11:27.656Z,102253.44
2023-05-03T08:13:54.277Z,102255.09
2023-05-03T08:16:21.453Z,102244.53
2023-05-03T08:18:48.181Z,102248.09
2023-05-03T08:21:15.099Z,102245.19
2023-05-03T08:23:43.142Z,102247.50
2023-05-03T08:26:10.954Z,102250.13
2023-05-03T08:28:38.007Z,102239.66
2023-05-03T08:31:05.088Z,102242.56
2023-05-03T08:33:31.842Z,102241.69
2023-05-03T08:35:58.384Z,102242.03
2023-05-03T08:38:30.048Z,102240.28
2023-05-03T08:40:59.619Z,102245.25
2023-05-03T08:43:28.605Z,102245.56
2023-05-03T08:45:57.250Z,102238.16
2023-05-03T08:48:24.009Z,102234.53
2023-05-03T08:50:52.051Z,102244.75
2023-05-03T08:53:18.726Z,102235.66
2023-05-03T08:55:45.447Z,102231.97
2023-05-03T08:58:13.109Z,102229.19
2023-05-03T09:00:44.580Z,102231.72
2023-05-03T09:03:11.817Z,102228.28
2023-05-03T09:05:44.138Z,102231.53
2023-05-03T09:08:13.468Z,102245.84
2023-05-03T09:10:42.266Z,102244.44
2023-05-03T09:13:12.075Z,102232.00
2023-05-03T09:15:38.917Z,102227.19
2023-05-03T09:18:08.521Z,102236.75
2023-05-03T09:20:36.777Z,102239.16
2023-05-03T09:23:03.605Z,102232.63
2023-05-03T09:25:49.726Z,102229.97
2023-05-03T09:28:17.413Z,102232.66
2023-05-03T09:30:45.011Z,102238.66
2023-05-03T09:33:12.095Z,102243.53
2023-05-03T09:35:39.138Z,102240.72
2023-05-03T09:38:06.228Z,102240.81
2023-05-03T09:40:33.081Z,102230.84
2023-05-03T09:43:09.723Z,102238.66
2023-05-03T09:45:37.873Z,102229.28
2023-05-03T09:48:06.753Z,102227.19
2023-05-03T09:50:34.604Z,102221.44
2023-05-03T09:53:05.936Z,102216.81
2023-05-03T09:55:37.167Z,102207.31
2023-05-03T09:58:08.421Z,102202.28
2023-05-03T10:00:39.094Z,102188.53
2023-05-03T10:03:11.308Z,102191.44
2023-05-03T10:05:46.087Z,102189.56
2023-05-03T10:08:37.971Z,102193.47
2023-05-03T10:11:08.123Z,102192.72
2023-05-03T10:13:36.155Z,102193.22
2023-05-03T10:16:08.372Z,102188.88
2023-05-03T10:18:40.904Z,102187.66
2023-05-03T10:21:21.757Z,102196.19
2023-05-03T10:24:14.021Z,102191.34
2023-05-03T10:26:42.110Z,102189.63
2023-05-03T10:29:31.622Z,102194.13
2023-05-03T10:31:58.105Z,102188.72
2023-05-03T10:34:25.807Z,102179.94
2023-05-03T10:36:56.895Z,102180.22
2023-05-03T10:39:23.509Z,102184.22
2023-05-03T10:41:59.840Z,102178.28
2023-05-03T10:44:28.000Z,102178.56
2023-05-03T10:46:55.026Z,102172.16
2023-05-03T10:49:23.594Z,102171.34
2023-05-03T10:51:50.310Z,102153.94
2023-05-03T10:54:17.701Z,102173.50
2023-05-03T10:56:52.655Z,102168.22
2023-05-03T10:59:20.230Z,102171.53
2023-05-03T11:01:51.204Z,102172.53
2023-05-03T11:04:36.016Z,102167.00
2023-05-03T11:07:07.334Z,102158.16
2023-05-03T11:09:34.529Z,102157.59
2023-05-03T11:12:06.070Z,102151.44
2023-05-03T11:14:32.740Z,102149.53
2023-05-03T11:16:59.502Z,102141.38
2023-05-03T11:19:26.852Z,102141.31
2023-05-03T11:21:53.755Z,102130.94
2023-05-03T11:24:20.408Z,102130.50
2023-05-03T11:26:47.338Z,102131.94
2023-05-03T11:29:17.113Z,102132.66
2023-05-03T11:31:44.169Z,102133.72
2023-05-03T11:34:12.380Z,102131.97
2023-05-03T11:36:40.845Z,102119.47
2023-05-03T11:39:08.153Z,102106.44
2023-05-03T11:41:35.814Z,102117.34
2023-05-03T11:44:14.971Z,102109.25
2023-05-03T11:46:43.724Z,102118.84
2023-05-03T11:49:10.468Z,102117.84
2023-05-03T11:51:37.403Z,102119.84
2023-05-03T11:54:13.590Z,102127.13
2023-05-03T11:56:52.814Z,102125.69
2023-05-03T11:59:20.082Z,102127.69
2023-05-03T12:01:49.349Z,102122.16
2023-05-03T12:04:16.942Z,102126.38
2023-05-03T12:06:52.067Z,102124.44
2023-05-03T12:09:22.073Z,102118.09
2023-05-03T12:11:51.999Z,102112.72
2023-05-03T12:14:19.912Z,102117.91
2023-05-03T12:16:50.797Z,102116.22
2023-05-03T12:19:25.815Z,102101.84
2023-05-03T12:22:07.924Z,102102.53
2023-05-03T12:24:39.666Z,102109.47
2023-05-03T12:27:08.604Z,102096.97
2023-05-03T12:29:35.885Z,102102.47
2023-05-03T12:32:03.840Z,102103.28
2023-05-03T12:34:36.911Z,102103.94
2023-05-03T12:37:06.697Z,102094.75
2023-05-03T12:39:34.503Z,102092.34
2023-05-03T12:42:08.060Z,102094.44
2023-05-03T12:44:35.468Z,102097.59
2023-05-03T12:47:04.037Z,102094.34
2023-05-03T12:49:31.706Z,102092.88
2023-05-03T12:54:33.372Z,102085.75
2023-05-03T12:57:08.329Z,102083.72
2023-05-03T12:59:41.662Z,102077.66
2023-05-03T13:04:57.781Z,102085.38
2023-05-03T13:07:29.617Z,102090.16
2023-05-03T13:12:30.800Z,102070.81
2023-05-03T13:14:58.160Z,102057.69
2023-05-03T13:17:25.073Z,102060.31
2023-05-03T13:19:52.486Z,102064.00
2023-05-03T13:22:19.313Z,102054.47
2023-05-03T13:24:47.379Z,102053.75
2023-05-03T13:27:14.524Z,102036.84
2023-05-03T13:29:41.589Z,102040.81
2023-05-03T13:32:09.419Z,102043.88
2023-05-03T13:34:36.432Z,102037.69
2023-05-03T13:37:04.609Z,102036.28
2023-05-03T13:39:32.146Z,102030.25
2023-05-03T13:41:58.903Z,102030.97
2023-05-03T13:44:26.153Z,102016.72
2023-05-03T13:46:53.031Z,102019.00
2023-05-03T13:49:19.920Z,102025.66
2023-05-03T13:51:46.744Z,102018.28
2023-05-03T13:54:13.518Z,102018.72
2023-05-03T13:59:21.056Z,102007.69
2023-05-03T14:01:48.176Z,102004.91
2023-05-03T14:04:14.853Z,102002.06
2023-05-03T14:06:42.033Z,101995.78
2023-05-03T14:09:09.711Z,101993.06
2023-05-03T14:11:36.392Z,101987.63
2023-05-03T14:14:03.366Z,101992.81
2023-05-03T14:16:40.832Z,101982.50
2023-05-03T14:19:12.455Z,101976.44
2023-05-03T14:21:45.264Z,101979.13
2023-05-03T14:24:12.510Z,101979.41
2023-05-03T14:26:39.194Z,101975.72
2023-05-03T14:29:06.113Z,101972.19
2023-05-03T14:31:34.127Z,101967.56
2023-05-03T14:34:01.120Z,101965.41
2023-05-03T14:36:35.843Z,101960.75
2023-05-03T14:39:04.123Z,101953.13
2023-05-03T14:41:32.188Z,101954.34
2023-05-03T14:43:58.867Z,101944.91
2023-05-03T14:46:25.648Z,101944.69
2023-05-03T14:48:52.352Z,101942.72
2023-05-03T14:51:19.079Z,101936.78
2023-05-03T14:53:45.710Z,101935.84
2023-05-03T14:56:12.357Z,101928.91
2023-05-03T14:58:38.889Z,101933.41
2023-05-03T15:01:05.509Z,101934.09
2023-05-03T15:03:32.458Z,101927.97
2023-05-03T15:06:00.251Z,101919.38
2023-05-03T15:08:27.573Z,101923.88
2023-05-03T15:10:54.144Z,101915.84
2023-05-03T15:13:20.953Z,101917.75
2023-05-03T15:15:48.066Z,101913.97
2023-05-03T15:18:15.653Z,101909.66
2023-05-03T15:20:42.281Z,101912.31
2023-05-03T15:23:09.017Z,101911.41
2023-05-03T15:25:35.702Z,101915.84
2023-05-03T15:28:04.220Z,101917.28
2023-05-03T15:30:32.845Z,101910.56
2023-05-03T15:33:01.035Z,101911.97
2023-05-03T15:35:28.010Z,101913.47
2023-05-03T15:37:54.751Z,101907.38
2023-05-03T15:40:23.723Z,101909.56
2023-05-03T15:42:51.969Z,101904.75
2023-05-03T15:45:18.916Z,101907.09
2023-05-03T15:47:46.247Z,101911.84
2023-05-03T15:50:13.297Z,101905.78
2023-05-03T15:52:39.950Z,101902.03
2023-05-03T15:55:08.993Z,101898.59
2023-05-03T15:57:35.740Z,101901.22
2023-05-03T16:00:06.353Z,101895.84
2023-05-03T16:02:33.989Z,101888.53
2023-05-03T16:05:00.738Z,101893.94
2023-05-03T16:07:27.345Z,101899.34
2023-05-03T16:09:53.955Z,101896.59
2023-05-03T16:12:20.540Z,101888.53
2023-05-03T16:14:47.219Z,101891.34
2023-05-03T16:17:13.908Z,101892.66
2023-05-03T16:19:40.628Z,101889.47
2023-05-03T16:22:07.241Z,101890.38
2023-05-03T16:24:34.861Z,101898.19
2023-05-03T16:27:04.196Z,101900.91
2023-05-03T16:29:33.490Z,101898.97
2023-05-03T16:32:04.124Z,101904.75
2023-05-03T16:34:32.616Z,101894.94
2023-05-03T16:36:59.261Z,101905.56
2023-05-03T16:39:25.936Z,101890.72
2023-05-03T16:41:52.765Z,101897.63
2023-05-03T16:44:19.430Z,101897.75
2023-05-03T16:46:46.737Z,101896.91
2023-05-03T16:49:13.315Z,101892.75
2023-05-03T16:51:45.938Z,101896.31
2023-05-03T16:54:20.399Z,101883.72
2023-05-03T16:56:49.893Z,101884.22
2023-05-03T16:59:20.249Z,101877.38
2023-05-03T17:01:50.900Z,101877.22
2023-05-03T17:04:18.018Z,101873.84
2023-05-03T17:06:47.209Z,101871.19
2023-05-03T17:09:13.948Z,101876.09
2023-05-03T17:11:40.608Z,101868.66
2023-05-03T17:14:07.202Z,101876.69
2023-05-03T17:16:33.793Z,101877.28
2023-05-03T17:19:00.997Z,101866.03
2023-05-03T17:21:27.597Z,101865.44
2023-05-03T17:23:54.183Z,101865.34
2023-05-03T17:26:21.296Z,101857.09
2023-05-03T17:28:48.566Z,101856.03
2023-05-03T17:31:15.173Z,101860.56
2023-05-03T17:33:41.828Z,101863.88
2023-05-03T17:36:08.583Z,101861.53
2023-05-03T17:38:35.970Z,101861.25
2023-05-03T17:41:10.372Z,101856.88
2023-05-03T17:43:38.214Z,101865.06
2023-05-03T17:46:10.534Z,101859.72
2023-05-03T17:48:40.269Z,101859.94
2023-05-03T17:51:07.927Z,101868.22
2023-05-03T17:53:34.742Z,101856.97
2023-05-03T17:56:01.536Z,101862.13
2023-05-03T17:58:28.285Z,101865.41
2023-05-03T18:00:56.865Z,101865.50
2023-05-03T18:03:25.876Z,101855.91
2023-05-03T18:05:53.017Z,101854.81
2023-05-03T18:08:19.562Z,101852.06
2023-05-03T18:10:46.226Z,101853.03
2023-05-03T18:13:13.217Z,101847.13
2023-05-03T18:15:41.851Z,101845.28
2023-05-03T18:18:08.920Z,101852.13
2023-05-03T18:20:35.782Z,101858.94
2023-05-03T18:23:02.673Z,101850.28
2023-05-03T18:25:29.487Z,101856.34
2023-05-03T18:27:57.189Z,101858.78
2023-05-03T18:30:26.167Z,101856.03
2023-05-03T18:32:52.915Z,101857.47
2023-05-03T18:35:19.775Z,101858.53
2023-05-03T18:37:46.347Z,101851.41
2023-05-03T18:40:13.159Z,101857.31
2023-05-03T18:42:39.770Z,101858.25
2023-05-03T18:45:07.112Z,101846.75
2023-05-03T18:47:33.825Z,101850.59
2023-05-03T18:50:00.728Z,101847.31
2023-05-03T18:52:28.900Z,101854.06
2023-05-03T18:54:57.231Z,101850.16
2023-05-03T18:57:27.797Z,101849.22
2023-05-03T19:00:01.107Z,101846.53
2023-05-03T19:02:31.153Z,101839.41
2023-05-03T19:05:00.948Z,101844.34
2023-05-03T19:07:27.933Z,101841.66
2023-05-03T19:09:55.803Z,101849.22
2023-05-03T19:12:22.747Z,101843.13
2023-05-03T19:14:49.683Z,101855.81
2023-05-03T19:17:16.739Z,101857.69
2023-05-03T19:19:43.337Z,101855.72
2023-05-03T19:22:10.176Z,101855.78
2023-05-03T19:24:36.813Z,101851.97
2023-05-03T19:27:07.209Z,101858.91
2023-05-03T19:29:37.886Z,101851.06
2023-05-03T19:32:04.823Z,101855.38
2023-05-03T19:34:31.450Z,101856.06
2023-05-03T19:36:57.954Z,101864.66
2023-05-03T19:39:24.796Z,101865.31
2023-05-03T19:41:53.038Z,101864.56
2023-05-03T19:44:19.712Z,101862.69
2023-05-03T19:46:46.361Z,101860.19
2023-05-03T19:49:13.057Z,101859.72
2023-05-03T19:51:39.613Z,101860.69
2023-05-03T19:54:06.256Z,101859.78
2023-05-03T19:56:32.982Z,101856.34
2023-05-03T19:58:59.571Z,101860.47
2023-05-03T20:01:26.185Z,101863.03
2023-05-03T20:03:53.912Z,101851.41
2023-05-03T20:06:22.180Z,101854.22
2023-05-03T20:08:51.122Z,101866.25
2023-05-03T20:11:19.700Z,101858.16
2023-05-03T20:13:46.810Z,101855.50
2023-05-03T20:16:13.509Z,101857.84
2023-05-03T20:18:40.340Z,101861.47
2023-05-03T20:21:06.989Z,101865.59
2023-05-03T20:23:33.563Z,101854.06
2023-05-03T20:26:01.750Z,101854.88
2023-05-03T20:28:28.881Z,101849.63
2023-05-03T20:30:55.501Z,101846.84
2023-05-03T20:33:22.206Z,101849.75
2023-05-03T20:35:49.316Z,101852.34
2023-05-03T20:38:15.973Z,101847.78
2023-05-03T20:40:42.597Z,101848.72
2023-05-03T20:43:10.166Z,101863.31
2023-05-03T20:45:36.750Z,101854.53
2023-05-03T20:48:03.538Z,101862.34
2023-05-03T20:50:30.562Z,101858.75
2023-05-03T20:52:57.192Z,101854.19
2023-05-03T20:55:23.885Z,101854.88
2023-05-03T20:57:50.532Z,101851.25
2023-05-03T21:00:17.596Z,101849.28
2023-05-03T21:02:45.005Z,101842.16
2023-05-03T21:05:12.532Z,101843.78
2023-05-03T21:07:39.169Z,101836.69
2023-05-03T21:10:07.538Z,101835.41
2023-05-03T21:12:34.793Z,101833.63
2023-05-03T21:15:01.969Z,101831.81
2023-05-03T21:17:28.601Z,101823.16
2023-05-03T21:19:55.740Z,101831.81
2023-05-03T21:22:22.722Z,101829.72
2023-05-03T21:24:49.565Z,101837.53
2023-05-03T21:27:16.291Z,101836.44
2023-05-03T21:29:42.881Z,101838.81
2023-05-03T21:32:09.578Z,101839.66
2023-05-03T21:34:36.181Z,101827.16
2023-05-03T21:37:03.769Z,101834.13
2023-05-03T21:39:30.577Z,101825.13
2023-05-03T21:41:57.167Z,101823.41
2023-05-03T21:44:23.760Z,101832.13
2023-05-03T21:46:51.116Z,101826.09
2023-05-03T21:49:17.715Z,101827.50
2023-05-03T21:51:45.193Z,101824.78
2023-05-03T21:54:11.828Z,101827.25
2023-05-03T21:56:38.624Z,101820.91
2023-05-03T21:59:05.758Z,101827.63
2023-05-03T22:01:32.404Z,101825.91
2023-05-03T22:03:59.838Z,101829.59
2023-05-03T22:06:26.799Z,101823.28
2023-05-03T22:08:53.624Z,101815.31
2023-05-03T22:11:20.976Z,101814.28
2023-05-03T22:14:03.094Z,101817.66
2023-05-03T22:16:34.249Z,101809.59
2023-05-03T22:19:01.006Z,101813.66
2023-05-03T22:21:27.560Z,101814.91
2023-05-03T22:23:54.185Z,101810.34
2023-05-03T22:26:20.825Z,101816.22
2023-05-03T22:28:47.504Z,101817.56
2023-05-03T22:31:14.166Z,101818.66
2023-05-03T22:33:44.660Z,101808.56
2023-05-03T22:36:11.704Z,101806.16
2023-05-03T22:38:38.810Z,101807.59
2023-05-03T22:41:06.930Z,101804.69
2023-05-03T22:43:33.626Z,101796.69
2023-05-03T22:46:02.359Z,101801.22
2023-05-03T22:48:32.070Z,101798.75
2023-05-03T22:50:58.509Z,101804.28
2023-05-03T22:53:25.324Z,101797.44
2023-05-03T22:56:04.423Z,101802.50
2023-05-03T22:58:32.255Z,101797.75
2023-05-03T23:00:59.093Z,101801.06
2023-05-03T23:03:26.980Z,101798.50
2023-05-03T23:05:54.616Z,101802.03
2023-05-03T23:08:21.383Z,101802.41
2023-05-03T23:10:47.944Z,101795.06
2023-05-03T23:13:14.595Z,101795.50
2023-05-03T23:15:41.539Z,101797.06
2023-05-03T23:18:08.507Z,101800.22
2023-05-03T23:20:35.229Z,101785.59
2023-05-03T23:23:01.868Z,101793.44
2023-05-03T23:25:28.643Z,101780.22
2023-05-03T23:27:55.271Z,101777.69
2023-05-03T23:30:22.530Z,101775.22
2023-05-03T23:32:49.787Z,101777.06
2023-05-03T23:35:17.066Z,101772.09
2023-05-03T23:37:43.682Z,101774.81
2023-05-03T23:40:10.667Z,101772.56
2023-05-03T23:42:39.598Z,101773.78
2023-05-03T23:45:09.963Z,101768.66
2023-05-03T23:47:36.952Z,101765.75
2023-05-03T23:50:04.633Z,101767.88
2023-05-03T23:52:31.298Z,101773.31
2023-05-03T23:54:57.882Z,101765.34
2023-05-03T23:57:24.379Z,101762.50
2023-05-03T23:59:51.033Z,101758.03
